createdAt,value
2018-12-08T00:02:22.263Z,99.90
2018-12-08T00:04:50.719Z,99.90
2018-12-08T00:07:19.151Z,99.90
2018-12-08T00:09:48.157Z,99.90
2018-12-08T00:12:16.751Z,99.90
2018-12-08T00:14:46.170Z,99.90
2018-12-08T00:17:16.336Z,99.90
2018-12-08T00:19:44.938Z,99.90
2018-12-08T00:22:13.279Z,99.90
2018-12-08T00:24:42.527Z,99.90
2018-12-08T00:27:11.173Z,99.90
2018-12-08T00:29:39.827Z,99.90
2018-12-08T00:32:08.520Z,99.90
2018-12-08T00:34:36.953Z,99.90
2018-12-08T00:37:05.451Z,99.90
2018-12-08T00:39:34.696Z,99.90
2018-12-08T00:42:03.162Z,99.90
2018-12-08T00:44:31.867Z,99.90
2018-12-08T00:47:02.519Z,99.90
2018-12-08T00:49:31.335Z,99.90
2018-12-08T00:52:01.800Z,99.90
2018-12-08T00:54:30.569Z,99.90
2018-12-08T00:56:59.276Z,99.90
2018-12-08T00:59:27.925Z,99.90
2018-12-08T01:04:35.329Z,99.90
2018-12-08T01:07:04.094Z,99.90
2018-12-08T01:09:32.704Z,99.90
2018-12-08T01:12:01.078Z,99.90
2018-12-08T01:14:29.599Z,99.90
2018-12-08T01:16:57.969Z,99.90
2018-12-08T01:19:26.248Z,99.90
2018-12-08T01:21:54.708Z,99.90
2018-12-08T01:24:23.205Z,99.90
2018-12-08T01:26:52.647Z,99.90
2018-12-08T01:29:21.707Z,99.90
2018-12-08T01:31:50.155Z,99.90
2018-12-08T01:34:18.779Z,99.90
2018-12-08T01:36:47.129Z,99.90
2018-12-08T01:39:15.576Z,99.90
2018-12-08T01:41:43.999Z,99.90
2018-12-08T01:44:12.342Z,99.90
2018-12-08T01:46:40.695Z,99.90
2018-12-08T01:49:09.058Z,99.90
2018-12-08T01:51:37.546Z,99.90
2018-12-08T01:54:05.883Z,99.90
2018-12-08T01:56:34.202Z,99.90
2018-12-08T01:59:02.650Z,99.90
2018-12-08T02:01:31.036Z,99.90
2018-12-08T02:03:59.340Z,99.90
2018-12-08T02:06:27.741Z,99.90
2018-12-08T02:08:56.146Z,99.90
2018-12-08T02:11:26.190Z,99.90
2018-12-08T02:13:54.503Z,99.90
2018-12-08T02:16:22.859Z,99.90
2018-12-08T02:18:51.238Z,99.90
2018-12-08T02:21:19.545Z,99.90
2018-12-08T02:23:47.980Z,99.90
2018-12-08T02:26:16.311Z,99.90
2018-12-08T02:28:44.656Z,99.90
2018-12-08T02:31:13.035Z,99.90
2018-12-08T02:33:41.388Z,99.90
2018-12-08T02:36:09.815Z,99.90
2018-12-08T02:38:38.375Z,99.90
2018-12-08T02:41:06.735Z,99.90
2018-12-08T02:43:35.076Z,99.90
2018-12-08T02:46:03.531Z,99.90
2018-12-08T02:48:31.994Z,99.90
2018-12-08T02:51:00.371Z,99.90
2018-12-08T02:53:29.481Z,99.90
2018-12-08T02:55:57.869Z,99.90
2018-12-08T02:58:26.204Z,99.90
2018-12-08T03:00:54.578Z,99.90
2018-12-08T03:03:22.885Z,99.90
2018-12-08T03:05:51.338Z,99.90
2018-12-08T03:08:19.819Z,99.90
2018-12-08T03:10:48.159Z,99.90
2018-12-08T03:13:16.481Z,99.90
2018-12-08T03:15:44.969Z,99.90
2018-12-08T03:18:13.466Z,99.90
2018-12-08T03:20:41.910Z,99.90
2018-12-08T03:23:10.662Z,99.90
2018-12-08T03:25:45.745Z,99.90
2018-12-08T03:28:14.423Z,99.90
2018-12-08T03:30:45.448Z,99.90
2018-12-08T03:33:14.727Z,99.90
2018-12-08T03:35:43.041Z,99.90
2018-12-08T03:38:11.373Z,99.90
2018-12-08T03:40:40.462Z,99.90
2018-12-08T03:43:08.789Z,99.90
2018-12-08T03:45:37.109Z,99.90
2018-12-08T03:48:05.479Z,99.90
2018-12-08T03:50:34.015Z,99.90
2018-12-08T03:53:02.385Z,99.90
2018-12-08T03:55:30.740Z,99.90
2018-12-08T03:57:59.162Z,99.90
2018-12-08T04:00:27.633Z,99.90
2018-12-08T04:02:56.040Z,99.90
2018-12-08T04:05:24.419Z,99.90
2018-12-08T04:07:52.922Z,99.90
2018-12-08T04:10:21.278Z,99.90
2018-12-08T04:12:50.091Z,99.90
2018-12-08T04:15:18.562Z,99.90
2018-12-08T04:17:47.109Z,99.90
2018-12-08T04:20:15.700Z,99.90
2018-12-08T04:22:44.023Z,99.90
2018-12-08T04:25:12.545Z,99.90
2018-12-08T04:27:41.026Z,99.90
2018-12-08T04:30:09.348Z,99.90
2018-12-08T04:32:37.700Z,99.90
2018-12-08T04:35:06.207Z,99.90
2018-12-08T04:37:34.640Z,99.90
2018-12-08T04:40:03.150Z,99.90
2018-12-08T04:42:31.431Z,99.90
2018-12-08T04:44:59.674Z,99.90
2018-12-08T04:47:28.106Z,99.90
2018-12-08T04:49:56.381Z,99.90
2018-12-08T04:52:25.649Z,99.90
2018-12-08T04:54:54.054Z,99.90
2018-12-08T04:57:22.331Z,99.90
2018-12-08T04:59:50.663Z,99.90
2018-12-08T05:02:25.686Z,99.90
2018-12-08T05:04:53.928Z,99.90
2018-12-08T05:07:22.609Z,99.90
2018-12-08T05:09:50.971Z,99.90
2018-12-08T05:12:19.751Z,99.90
2018-12-08T05:14:48.840Z,99.90
2018-12-08T05:17:17.450Z,99.90
2018-12-08T05:19:45.929Z,99.90
2018-12-08T05:22:14.442Z,99.90
2018-12-08T05:24:42.755Z,99.90
2018-12-08T05:27:11.077Z,99.90
2018-12-08T05:29:39.690Z,99.90
2018-12-08T05:32:08.230Z,99.90
2018-12-08T05:34:36.861Z,99.90
2018-12-08T05:37:05.505Z,99.90
2018-12-08T05:39:33.880Z,99.90
2018-12-08T05:42:02.320Z,99.90
2018-12-08T05:44:30.801Z,99.50
2018-12-08T05:46:59.280Z,99.00
2018-12-08T05:49:27.691Z,99.10
2018-12-08T05:51:56.144Z,98.70
2018-12-08T05:54:24.776Z,99.60
2018-12-08T05:56:53.387Z,99.00
2018-12-08T05:59:21.904Z,99.20
2018-12-08T06:01:50.483Z,98.90
2018-12-08T06:04:18.836Z,98.30
2018-12-08T06:06:48.039Z,98.40
2018-12-08T06:09:16.311Z,99.10
2018-12-08T06:11:44.743Z,99.10
2018-12-08T06:14:13.159Z,98.20
2018-12-08T06:16:41.491Z,98.60
2018-12-08T06:19:11.454Z,97.90
2018-12-08T06:21:40.733Z,97.60
2018-12-08T06:24:14.613Z,97.80
2018-12-08T06:27:03.586Z,97.10
2018-12-08T06:29:32.612Z,96.80
2018-12-08T06:32:07.788Z,96.60
2018-12-08T06:34:36.745Z,96.30
2018-12-08T06:37:05.913Z,96.20
2018-12-08T06:39:38.457Z,95.60
2018-12-08T06:42:07.052Z,95.40
2018-12-08T06:44:35.417Z,95.70
2018-12-08T06:47:04.343Z,95.90
2018-12-08T06:49:32.826Z,95.60
2018-12-08T06:52:01.171Z,95.90
2018-12-08T06:54:29.541Z,95.70
2018-12-08T06:56:57.960Z,95.30
2018-12-08T06:59:26.224Z,95.40
2018-12-08T07:01:54.748Z,95.50
2018-12-08T07:04:23.836Z,95.50
2018-12-08T07:06:52.347Z,95.30
2018-12-08T07:09:20.686Z,95.30
2018-12-08T07:11:49.123Z,95.20
2018-12-08T07:14:17.463Z,94.90
2018-12-08T07:16:45.902Z,94.00
2018-12-08T07:19:14.397Z,94.20
2018-12-08T07:21:42.729Z,93.90
2018-12-08T07:24:11.117Z,93.50
2018-12-08T07:26:39.420Z,93.60
2018-12-08T07:29:07.875Z,93.40
2018-12-08T07:31:36.784Z,93.70
2018-12-08T07:34:05.439Z,93.50
2018-12-08T07:36:34.954Z,93.40
2018-12-08T07:39:04.413Z,93.20
2018-12-08T07:41:32.695Z,93.10
2018-12-08T07:44:01.679Z,93.10
2018-12-08T07:46:30.613Z,93.00
2018-12-08T07:48:59.436Z,93.30
2018-12-08T07:51:27.978Z,93.60
2018-12-08T07:53:56.503Z,94.10
2018-12-08T07:56:24.780Z,94.00
2018-12-08T07:58:59.704Z,93.40
2018-12-08T08:01:28.364Z,93.00
2018-12-08T08:03:57.087Z,92.90
2018-12-08T08:06:25.761Z,92.70
2018-12-08T08:08:55.281Z,92.60
2018-12-08T08:11:23.727Z,92.70
2018-12-08T08:13:52.677Z,91.70
2018-12-08T08:16:21.176Z,91.70
2018-12-08T08:18:49.687Z,91.50
2018-12-08T08:21:18.271Z,91.30
2018-12-08T08:23:46.627Z,90.80
2018-12-08T08:26:15.857Z,90.90
2018-12-08T08:28:44.351Z,91.00
2018-12-08T08:31:12.770Z,90.80
2018-12-08T08:33:41.389Z,90.20
2018-12-08T08:36:09.799Z,90.80
2018-12-08T08:38:38.224Z,91.00
2018-12-08T08:41:07.837Z,91.20
2018-12-08T08:43:36.373Z,91.10
2018-12-08T08:46:05.468Z,91.20
2018-12-08T08:48:33.845Z,90.80
2018-12-08T08:51:03.549Z,90.80
2018-12-08T08:53:34.501Z,90.30
2018-12-08T08:56:04.218Z,90.30
2018-12-08T08:58:34.545Z,89.80
2018-12-08T09:01:03.183Z,90.10
2018-12-08T09:03:31.563Z,91.00
2018-12-08T09:06:01.077Z,91.20
2018-12-08T09:08:29.898Z,91.60
2018-12-08T09:11:00.151Z,91.10
2018-12-08T09:13:30.221Z,90.80
2018-12-08T09:15:59.603Z,90.80
2018-12-08T09:18:28.043Z,90.00
2018-12-08T09:20:56.584Z,90.40
2018-12-08T09:23:25.554Z,90.60
2018-12-08T09:25:54.024Z,90.60
2018-12-08T09:28:22.379Z,91.30
2018-12-08T09:30:50.975Z,90.30
2018-12-08T09:33:19.714Z,90.00
2018-12-08T09:35:48.292Z,90.60
2018-12-08T09:38:17.688Z,90.00
2018-12-08T09:40:46.298Z,89.10
2018-12-08T09:43:14.783Z,90.00
2018-12-08T09:45:43.150Z,90.00
2018-12-08T09:48:11.533Z,90.10
2018-12-08T09:50:40.157Z,89.80
2018-12-08T09:53:15.849Z,90.20
2018-12-08T09:55:44.205Z,90.00
2018-12-08T09:58:12.876Z,90.30
2018-12-08T10:00:41.543Z,91.10
2018-12-08T10:03:10.559Z,90.40
2018-12-08T10:05:39.378Z,89.90
2018-12-08T10:08:08.158Z,90.30
2018-12-08T10:10:41.586Z,89.90
2018-12-08T10:13:10.531Z,90.60
2018-12-08T10:15:40.824Z,90.10
2018-12-08T10:18:10.326Z,89.90
2018-12-08T10:20:39.096Z,88.10
2018-12-08T10:23:08.049Z,88.50
2018-12-08T10:25:36.459Z,89.30
2018-12-08T10:28:08.364Z,89.10
2018-12-08T10:30:38.844Z,88.60
2018-12-08T10:33:08.120Z,89.10
2018-12-08T10:35:39.664Z,89.60
2018-12-08T10:38:09.175Z,89.10
2018-12-08T10:40:38.462Z,88.80
2018-12-08T10:43:07.966Z,87.70
2018-12-08T10:45:36.616Z,86.10
2018-12-08T10:48:05.727Z,87.80
2018-12-08T10:50:34.110Z,88.10
2018-12-08T10:53:02.691Z,88.40
2018-12-08T10:55:31.485Z,88.40
2018-12-08T10:58:01.684Z,88.00
2018-12-08T11:00:35.951Z,87.50
2018-12-08T11:03:09.896Z,88.40
2018-12-08T11:05:38.485Z,88.70
2018-12-08T11:08:07.832Z,89.80
2018-12-08T11:10:36.962Z,89.30
2018-12-08T11:13:05.519Z,88.70
2018-12-08T11:15:35.483Z,89.90
2018-12-08T11:18:04.791Z,90.00
2018-12-08T11:20:34.099Z,89.50
2018-12-08T11:23:02.860Z,88.80
2018-12-08T11:25:32.989Z,89.40
2018-12-08T11:28:02.352Z,88.90
2018-12-08T11:30:31.505Z,89.20
2018-12-08T11:33:01.113Z,89.00
2018-12-08T11:35:32.437Z,89.50
2018-12-08T11:38:01.843Z,89.20
2018-12-08T11:40:32.557Z,88.60
2018-12-08T11:43:02.150Z,89.30
2018-12-08T11:45:30.762Z,89.00
2018-12-08T11:47:59.181Z,89.20
2018-12-08T11:50:27.550Z,88.10
2018-12-08T11:52:56.168Z,88.60
2018-12-08T11:55:30.153Z,89.00
2018-12-08T11:57:56.269Z,89.10
2018-12-08T12:00:24.932Z,89.00
2018-12-08T12:02:53.426Z,88.70
2018-12-08T12:05:23.810Z,88.90
2018-12-08T12:07:53.942Z,88.20
2018-12-08T12:10:23.060Z,88.50
2018-12-08T12:12:53.341Z,89.10
2018-12-08T12:15:23.212Z,89.20
2018-12-08T12:17:51.941Z,88.60
2018-12-08T12:20:20.753Z,89.00
2018-12-08T12:22:49.164Z,90.50
2018-12-08T12:25:17.777Z,90.40
2018-12-08T12:27:46.730Z,88.00
2018-12-08T12:30:15.386Z,88.40
2018-12-08T12:32:44.985Z,88.40
2018-12-08T12:35:13.570Z,88.00
2018-12-08T12:37:42.257Z,87.20
2018-12-08T12:40:11.938Z,86.60
2018-12-08T12:42:40.693Z,86.60
2018-12-08T12:45:09.137Z,86.50
2018-12-08T12:47:37.569Z,86.50
2018-12-08T12:50:06.012Z,87.20
2018-12-08T12:52:34.594Z,87.10
2018-12-08T12:55:03.710Z,85.40
2018-12-08T12:57:32.402Z,85.40
2018-12-08T13:00:01.424Z,85.90
2018-12-08T13:02:31.570Z,86.70
2018-12-08T13:05:00.443Z,85.20
2018-12-08T13:07:30.139Z,85.60
2018-12-08T13:10:07.180Z,86.70
2018-12-08T13:12:36.389Z,86.60
2018-12-08T13:15:09.256Z,86.00
2018-12-08T13:17:38.901Z,86.70
2018-12-08T13:22:59.259Z,85.90
2018-12-08T13:28:07.070Z,84.80
2018-12-08T13:30:36.910Z,85.90
2018-12-08T13:33:07.580Z,86.40
2018-12-08T13:35:58.171Z,85.90
2018-12-08T13:38:27.031Z,86.40
2018-12-08T13:40:56.678Z,85.10
2018-12-08T13:43:27.875Z,85.50
2018-12-08T13:45:58.313Z,86.20
2018-12-08T13:48:27.888Z,86.00
2018-12-08T13:50:57.264Z,86.40
2018-12-08T13:53:26.043Z,90.40
2018-12-08T13:55:55.031Z,93.30
2018-12-08T13:58:24.087Z,95.00
2018-12-08T14:00:53.445Z,96.80
2018-12-08T14:03:22.586Z,97.60
2018-12-08T14:05:51.669Z,98.40
2018-12-08T14:08:20.175Z,99.00
2018-12-08T14:10:48.590Z,99.70
2018-12-08T14:13:17.147Z,99.90
2018-12-08T14:15:46.029Z,99.90
2018-12-08T14:18:14.931Z,99.90
2018-12-08T14:20:44.454Z,99.90
2018-12-08T14:23:12.849Z,99.90
2018-12-08T14:25:41.563Z,99.90
2018-12-08T14:28:10.383Z,99.90
2018-12-08T14:30:40.184Z,99.90
2018-12-08T14:33:08.776Z,99.90
2018-12-08T14:35:37.185Z,99.90
2018-12-08T14:38:05.837Z,99.90
2018-12-08T14:40:36.447Z,99.90
2018-12-08T14:43:05.246Z,99.90
2018-12-08T14:45:33.716Z,99.90
2018-12-08T14:48:02.299Z,99.90
2018-12-08T14:50:30.655Z,99.90
2018-12-08T14:52:59.717Z,99.90
2018-12-08T14:55:28.152Z,99.90
2018-12-08T14:57:56.494Z,99.90
2018-12-08T15:00:26.140Z,99.90
2018-12-08T15:02:54.821Z,99.90
2018-12-08T15:05:24.372Z,99.90
2018-12-08T15:07:54.148Z,99.90
2018-12-08T15:10:22.624Z,99.90
2018-12-08T15:12:52.710Z,99.90
2018-12-08T15:15:23.283Z,99.90
2018-12-08T15:17:51.943Z,99.90
2018-12-08T15:20:21.976Z,99.90
2018-12-08T15:22:50.807Z,99.90
2018-12-08T15:25:20.892Z,99.90
2018-12-08T15:27:49.812Z,99.90
2018-12-08T15:30:19.615Z,99.90
2018-12-08T15:32:49.477Z,99.90
2018-12-08T15:35:18.577Z,99.90
2018-12-08T15:37:47.924Z,99.90
2018-12-08T15:40:17.368Z,99.90
2018-12-08T15:45:41.541Z,99.90
2018-12-08T15:48:10.477Z,99.90
2018-12-08T15:50:39.265Z,99.90
2018-12-08T15:53:08.259Z,99.90
2018-12-08T15:55:45.371Z,99.90
2018-12-08T15:58:17.613Z,99.90
2018-12-08T16:00:46.326Z,99.90
2018-12-08T16:03:15.236Z,99.90
2018-12-08T16:05:43.664Z,99.90
2018-12-08T16:08:12.268Z,99.90
2018-12-08T16:10:41.347Z,99.90
2018-12-08T16:13:10.684Z,99.90
2018-12-08T16:15:39.638Z,99.90
2018-12-08T16:18:09.935Z,99.90
2018-12-08T16:20:41.267Z,99.90
2018-12-08T16:23:11.059Z,99.90
2018-12-08T16:25:39.888Z,99.90
2018-12-08T16:28:08.389Z,99.90
2018-12-08T16:30:39.412Z,99.90
2018-12-08T16:33:08.572Z,99.90
2018-12-08T16:35:37.663Z,99.90
2018-12-08T16:38:06.859Z,99.90
2018-12-08T16:40:35.918Z,99.90
2018-12-08T16:43:04.757Z,99.90
2018-12-08T16:45:34.965Z,99.90
2018-12-08T16:48:03.892Z,99.90
2018-12-08T16:50:33.457Z,99.90
2018-12-08T16:53:02.989Z,99.90
2018-12-08T16:55:31.597Z,99.90
2018-12-08T16:58:00.865Z,99.90
2018-12-08T17:00:31.790Z,99.90
2018-12-08T17:03:00.734Z,99.90
2018-12-08T17:05:29.555Z,99.90
2018-12-08T17:07:58.049Z,99.90
2018-12-08T17:10:27.916Z,99.90
2018-12-08T17:12:56.700Z,99.90
2018-12-08T17:15:27.407Z,99.90
2018-12-08T17:17:56.028Z,99.90
2018-12-08T17:20:24.553Z,99.90
2018-12-08T17:22:55.081Z,99.90
2018-12-08T17:25:23.606Z,99.90
2018-12-08T17:27:54.586Z,99.90
2018-12-08T17:30:24.530Z,99.60
2018-12-08T17:32:54.324Z,99.90
2018-12-08T17:35:23.711Z,99.90
2018-12-08T17:37:53.587Z,99.90
2018-12-08T17:40:22.281Z,99.50
2018-12-08T17:42:51.166Z,99.20
2018-12-08T17:45:22.191Z,99.30
2018-12-08T17:47:53.185Z,99.00
2018-12-08T17:50:22.386Z,99.40
2018-12-08T17:52:51.121Z,99.50
2018-12-08T17:55:20.756Z,99.70
2018-12-08T17:57:50.407Z,99.70
2018-12-08T18:00:20.311Z,99.50
2018-12-08T18:02:48.888Z,99.20
2018-12-08T18:05:18.579Z,99.40
2018-12-08T18:07:48.129Z,99.30
2018-12-08T18:10:17.240Z,99.10
2018-12-08T18:12:46.644Z,99.00
2018-12-08T18:15:15.463Z,98.80
2018-12-08T18:17:44.314Z,98.90
2018-12-08T18:20:12.792Z,99.30
2018-12-08T18:22:42.071Z,99.30
2018-12-08T18:25:34.049Z,98.90
2018-12-08T18:28:36.433Z,98.80
2018-12-08T18:31:05.016Z,98.70
2018-12-08T18:33:33.935Z,98.70
2018-12-08T18:36:03.522Z,98.60
2018-12-08T18:38:32.111Z,98.50
2018-12-08T18:41:01.135Z,98.50
2018-12-08T18:43:30.086Z,98.30
2018-12-08T18:45:58.879Z,98.80
2018-12-08T18:48:31.111Z,98.50
2018-12-08T18:50:59.731Z,98.80
2018-12-08T18:53:29.197Z,98.70
2018-12-08T18:55:57.878Z,98.80
2018-12-08T18:58:26.587Z,98.60
2018-12-08T19:00:55.066Z,98.70
2018-12-08T19:03:26.485Z,98.60
2018-12-08T19:05:57.546Z,98.30
2018-12-08T19:08:26.400Z,98.20
2018-12-08T19:10:55.103Z,98.20
2018-12-08T19:13:23.871Z,98.20
2018-12-08T19:15:54.150Z,98.30
2018-12-08T19:18:24.084Z,98.40
2018-12-08T19:20:54.599Z,98.30
2018-12-08T19:23:23.505Z,97.90
2018-12-08T19:25:52.965Z,97.70
2018-12-08T19:28:21.543Z,98.10
2018-12-08T19:30:50.107Z,98.10
2018-12-08T19:33:24.372Z,98.10
2018-12-08T19:35:53.000Z,98.10
2018-12-08T19:38:21.364Z,98.00
2018-12-08T19:40:50.010Z,97.90
2018-12-08T19:43:22.824Z,97.60
2018-12-08T19:45:51.466Z,97.70
2018-12-08T19:48:20.122Z,97.70
2018-12-08T19:50:48.771Z,98.00
2018-12-08T19:53:17.319Z,98.00
2018-12-08T19:55:46.556Z,97.50
2018-12-08T19:58:15.123Z,97.60
2018-12-08T20:00:45.959Z,97.60
2018-12-08T20:03:15.676Z,97.50
2018-12-08T20:05:44.787Z,97.10
2018-12-08T20:08:13.671Z,96.70
2018-12-08T20:10:42.740Z,96.90
2018-12-08T20:13:11.516Z,96.90
2018-12-08T20:15:40.273Z,96.70
2018-12-08T20:18:09.098Z,96.20
2018-12-08T20:20:38.070Z,96.20
2018-12-08T20:23:08.439Z,96.40
2018-12-08T20:28:34.988Z,96.60
2018-12-08T20:31:05.105Z,96.40
2018-12-08T20:33:35.279Z,96.60
2018-12-08T20:36:06.238Z,96.60
2018-12-08T20:38:35.921Z,96.80
2018-12-08T20:41:04.910Z,97.00
2018-12-08T20:43:33.756Z,97.10
2018-12-08T20:46:03.417Z,97.20
2018-12-08T20:48:32.818Z,97.20
2018-12-08T20:51:02.063Z,97.20
2018-12-08T20:53:34.306Z,97.40
2018-12-08T20:56:04.694Z,97.60
2018-12-08T20:58:35.966Z,97.80
2018-12-08T21:01:06.581Z,98.50
2018-12-08T21:03:35.178Z,98.70
2018-12-08T21:06:04.418Z,99.40
2018-12-08T21:08:34.852Z,99.30
2018-12-08T21:11:26.226Z,99.10
2018-12-08T21:14:36.495Z,99.10
2018-12-08T21:19:26.568Z,99.10
2018-12-08T21:22:29.217Z,99.30
2018-12-08T21:28:05.828Z,99.70
2018-12-08T21:30:39.618Z,99.90
2018-12-08T21:33:08.976Z,99.90
2018-12-08T21:36:07.992Z,99.90
2018-12-08T21:38:42.016Z,99.90
2018-12-08T21:41:17.025Z,99.90
2018-12-08T22:00:20.359Z,99.70
2018-12-08T22:02:51.653Z,99.40
2018-12-08T22:05:22.207Z,99.30
2018-12-08T22:07:55.796Z,99.10
2018-12-08T22:10:29.628Z,99.10
2018-12-08T22:12:59.416Z,99.00
2018-12-08T22:15:33.547Z,99.10
2018-12-08T22:18:05.897Z,99.10
2018-12-08T22:20:53.350Z,99.40
2018-12-08T22:23:22.068Z,99.60
2018-12-08T22:25:53.187Z,99.60
2018-12-08T22:28:26.356Z,99.80
2018-12-08T22:30:57.460Z,99.50
2018-12-08T22:33:28.654Z,99.70
2018-12-08T22:35:58.743Z,99.70
2018-12-08T22:38:32.452Z,99.50
2018-12-08T22:41:01.848Z,99.60
2018-12-08T22:43:43.984Z,99.50
2018-12-08T22:46:18.607Z,99.90
2018-12-08T22:48:54.268Z,99.60
2018-12-08T22:51:25.791Z,99.40
2018-12-08T22:54:02.165Z,99.40
2018-12-08T22:56:34.560Z,99.40
2018-12-08T22:59:03.635Z,99.80
2018-12-08T23:01:35.395Z,99.80
2018-12-08T23:04:24.136Z,99.70
2018-12-08T23:07:16.785Z,99.90
2018-12-08T23:09:47.402Z,99.90
2018-12-08T23:12:24.893Z,99.90
2018-12-08T23:15:01.382Z,99.90
2018-12-08T23:17:36.441Z,99.90
2018-12-08T23:20:18.738Z,99.90
2018-12-08T23:25:33.895Z,99.90
2018-12-08T23:28:02.797Z,99.90
2018-12-08T23:30:34.271Z,99.90
2018-12-08T23:33:06.011Z,99.90
2018-12-08T23:35:35.443Z,99.90
2018-12-08T23:38:04.171Z,99.90
2018-12-08T23:40:32.613Z,99.90
2018-12-08T23:43:01.061Z,99.90
2018-12-08T23:45:29.501Z,99.90
2018-12-08T23:47:58.239Z,99.90
2018-12-08T23:50:26.820Z,99.90
2018-12-08T23:52:55.245Z,99.90
2018-12-08T23:55:23.668Z,99.90
2018-12-08T23:57:52.018Z,99.90
